Terminal Aerodrome Forecast
Issued by NWS Charleston, WV

Current Version | Previous Version | Text Only | Print | Product List | Glossary Off
Versions: 1 2 3 4 5 6 7 8 9 10 11 12 13 14 15 16 17 18 19 20 21 22

064
FTUS41 KRLX 092341
TAFHTS
TAF
KHTS 092341Z 1000/1024 26009G16KT 5SM -SHSN OVC025
     FM100200 26009G15KT P6SM VCSH OVC015
     FM101900 25011G16KT P6SM VCSH BKN025
     FM102300 29007KT P6SM BKN025=

USA.gov is the U.S. government's official web portal to all federal, state and local government web resources and services.